createdAt,value
2019-03-21T00:00:37.223Z,22.40
2019-03-21T00:03:07.646Z,19.90
2019-03-21T00:05:38.307Z,22.07
2019-03-21T00:08:10.764Z,22.70
2019-03-21T00:11:23.146Z,22.30
2019-03-21T00:13:54.805Z,21.57
2019-03-21T00:16:25.172Z,22.27
2019-03-21T00:18:55.662Z,22.23
2019-03-21T00:21:25.978Z,22.30
2019-03-21T00:23:56.402Z,22.00
2019-03-21T00:26:26.819Z,21.23
2019-03-21T00:28:57.134Z,22.60
2019-03-21T00:31:27.850Z,21.73
2019-03-21T00:33:58.326Z,21.53
2019-03-21T00:36:28.815Z,22.00
2019-03-21T00:38:59.417Z,21.87
2019-03-21T00:41:29.810Z,22.40
2019-03-21T00:44:00.589Z,21.17
2019-03-21T00:46:30.916Z,23.00
2019-03-21T00:49:01.258Z,21.90
2019-03-21T00:51:31.682Z,24.47
2019-03-21T00:54:01.985Z,21.27
2019-03-21T00:56:32.378Z,24.47
2019-03-21T00:59:03.116Z,23.70
2019-03-21T01:01:33.607Z,23.50
2019-03-21T01:04:04.070Z,23.87
2019-03-21T01:06:34.467Z,23.93
2019-03-21T01:09:07.752Z,23.70
2019-03-21T01:11:38.438Z,24.43
2019-03-21T01:14:08.761Z,23.30
2019-03-21T01:16:39.185Z,25.17
2019-03-21T01:19:09.571Z,24.20
2019-03-21T01:21:39.943Z,24.97
2019-03-21T01:24:10.343Z,24.80
2019-03-21T01:26:40.692Z,23.10
2019-03-21T01:29:11.171Z,24.77
2019-03-21T01:31:41.883Z,25.63
2019-03-21T01:34:12.259Z,23.77
2019-03-21T01:36:43.600Z,23.23
2019-03-21T01:39:14.005Z,22.67
2019-03-21T01:41:44.302Z,22.77
2019-03-21T01:44:15.108Z,23.50
2019-03-21T01:46:45.414Z,21.97
2019-03-21T01:49:16.155Z,22.77
2019-03-21T01:51:46.662Z,21.67
2019-03-21T01:54:17.130Z,21.37
2019-03-21T01:56:47.610Z,21.80
2019-03-21T01:59:18.034Z,20.80
2019-03-21T02:01:48.449Z,21.67
2019-03-21T02:04:18.869Z,21.43
2019-03-21T02:06:49.623Z,21.00
2019-03-21T02:09:20.008Z,20.13
2019-03-21T02:11:51.431Z,20.73
2019-03-21T02:14:21.731Z,20.93
2019-03-21T02:16:52.231Z,22.10
2019-03-21T02:19:23.179Z,21.07
2019-03-21T02:21:53.619Z,20.30
2019-03-21T02:24:24.019Z,21.90
2019-03-21T02:26:54.855Z,19.00
2019-03-21T02:29:25.150Z,19.57
2019-03-21T02:31:55.543Z,19.60
2019-03-21T02:34:25.967Z,19.83
2019-03-21T02:36:56.405Z,19.13
2019-03-21T02:39:26.822Z,19.27
2019-03-21T02:41:57.174Z,20.07
2019-03-21T02:44:28.000Z,19.17
2019-03-21T02:46:58.320Z,19.50
2019-03-21T02:49:28.981Z,18.53
2019-03-21T02:51:59.373Z,18.83
2019-03-21T02:54:29.701Z,19.87
2019-03-21T02:57:00.088Z,19.80
2019-03-21T02:59:30.496Z,19.57
2019-03-21T03:02:01.355Z,19.87
2019-03-21T03:04:31.916Z,19.50
2019-03-21T03:07:02.687Z,20.00
2019-03-21T03:09:34.010Z,19.90
2019-03-21T03:12:04.517Z,19.80
2019-03-21T03:14:35.013Z,18.57
2019-03-21T03:17:05.426Z,19.83
2019-03-21T03:19:35.911Z,20.87
2019-03-21T03:22:06.412Z,20.27
2019-03-21T03:24:37.976Z,18.90
2019-03-21T03:27:08.318Z,18.83
2019-03-21T03:29:38.619Z,19.37
2019-03-21T03:32:09.004Z,18.30
2019-03-21T03:34:39.487Z,18.67
2019-03-21T03:37:10.914Z,19.87
2019-03-21T03:39:41.235Z,19.40
2019-03-21T03:42:11.625Z,19.50
2019-03-21T03:44:42.289Z,19.47
2019-03-21T03:47:12.663Z,19.73
2019-03-21T03:49:43.363Z,19.53
2019-03-21T03:52:14.196Z,19.70
2019-03-21T03:54:44.714Z,19.93
2019-03-21T03:57:15.988Z,18.70
2019-03-21T03:59:46.347Z,20.50
2019-03-21T04:02:16.744Z,21.00
2019-03-21T04:04:47.220Z,18.77
2019-03-21T04:07:17.727Z,19.90
2019-03-21T04:09:48.157Z,20.40
2019-03-21T04:12:18.924Z,19.70
2019-03-21T04:14:49.633Z,20.37
2019-03-21T04:17:19.990Z,19.67
2019-03-21T04:19:50.284Z,20.27
2019-03-21T04:22:21.059Z,21.63
2019-03-21T04:24:51.475Z,22.20
2019-03-21T04:27:23.006Z,19.87
2019-03-21T04:29:53.529Z,19.80
2019-03-21T04:32:23.857Z,20.13
2019-03-21T04:34:54.303Z,20.83
2019-03-21T04:37:24.696Z,19.47
2019-03-21T04:39:55.096Z,20.10
2019-03-21T04:42:25.523Z,20.37
2019-03-21T04:44:56.338Z,20.50
2019-03-21T04:47:26.767Z,18.87
2019-03-21T04:49:57.166Z,19.87
2019-03-21T04:52:27.463Z,20.20
2019-03-21T04:54:57.831Z,18.37
2019-03-21T04:57:28.922Z,18.73
2019-03-21T04:59:59.362Z,18.70
2019-03-21T05:02:30.131Z,18.07
2019-03-21T05:05:00.542Z,18.47
2019-03-21T05:07:30.886Z,19.77
2019-03-21T05:10:01.343Z,18.13
2019-03-21T05:12:31.706Z,20.23
2019-03-21T05:15:02.892Z,18.73
2019-03-21T05:17:33.253Z,18.67
2019-03-21T05:20:04.146Z,20.47
2019-03-21T05:22:36.149Z,19.97
2019-03-21T05:25:08.374Z,20.77
2019-03-21T05:27:38.769Z,19.87
2019-03-21T05:30:12.888Z,20.77
2019-03-21T05:32:43.246Z,19.50
2019-03-21T05:35:13.599Z,20.47
2019-03-21T05:37:43.988Z,20.20
2019-03-21T05:40:15.991Z,18.53
2019-03-21T05:42:56.437Z,20.13
2019-03-21T05:45:27.387Z,20.37
2019-03-21T05:47:57.863Z,20.27
2019-03-21T05:50:28.532Z,18.87
2019-03-21T05:52:59.047Z,20.60
2019-03-21T05:55:29.411Z,20.00
2019-03-21T05:57:59.790Z,20.23
2019-03-21T06:00:34.758Z,22.00
2019-03-21T06:03:06.542Z,21.47
2019-03-21T06:05:37.176Z,21.37
2019-03-21T06:08:11.312Z,21.00
2019-03-21T06:10:42.807Z,22.27
2019-03-21T06:13:13.274Z,20.87
2019-03-21T06:15:43.571Z,19.33
2019-03-21T06:18:35.440Z,21.43
2019-03-21T06:21:19.639Z,19.20
2019-03-21T06:24:14.819Z,20.57
2019-03-21T06:27:14.031Z,19.97
2019-03-21T06:29:37.162Z,21.57
2019-03-21T06:32:07.704Z,21.20
2019-03-21T06:34:38.015Z,20.53
2019-03-21T06:37:08.402Z,22.07
2019-03-21T06:39:38.706Z,21.50
2019-03-21T06:42:09.256Z,21.83
2019-03-21T06:44:39.703Z,23.70
2019-03-21T06:47:10.059Z,23.57
2019-03-21T06:49:40.822Z,22.47
2019-03-21T06:52:11.637Z,21.30
2019-03-21T06:54:42.061Z,23.63
2019-03-21T06:57:12.604Z,21.50
2019-03-21T06:59:42.949Z,22.50
2019-03-21T07:02:13.435Z,21.47
2019-03-21T07:04:44.140Z,23.40
2019-03-21T07:07:14.478Z,23.43
2019-03-21T07:09:44.771Z,22.50
2019-03-21T07:12:15.267Z,24.00
2019-03-21T07:14:45.727Z,23.93
2019-03-21T07:17:16.201Z,25.50
2019-03-21T07:19:47.075Z,22.83
2019-03-21T07:22:17.365Z,24.10
2019-03-21T07:24:47.773Z,23.77
2019-03-21T07:27:19.163Z,22.10
2019-03-21T07:29:49.783Z,23.37
2019-03-21T07:32:20.770Z,22.57
2019-03-21T07:34:51.402Z,23.60
2019-03-21T07:37:21.882Z,22.63
2019-03-21T07:39:52.658Z,23.10
2019-03-21T07:42:22.993Z,23.60
2019-03-21T07:44:53.922Z,23.93
2019-03-21T07:47:24.310Z,23.17
2019-03-21T07:49:54.608Z,22.83
2019-03-21T07:52:24.984Z,23.90
2019-03-21T07:54:55.553Z,23.03
2019-03-21T07:57:26.256Z,24.03
2019-03-21T07:59:56.560Z,23.53
2019-03-21T08:02:27.012Z,23.60
2019-03-21T08:04:57.483Z,26.27
2019-03-21T08:07:27.824Z,24.10
2019-03-21T08:09:58.251Z,23.60
2019-03-21T08:12:28.970Z,22.67
2019-03-21T08:14:59.558Z,23.10
2019-03-21T08:17:30.891Z,22.33
2019-03-21T08:20:13.642Z,21.87
2019-03-21T08:22:44.083Z,22.95
2019-03-21T08:25:15.083Z,22.73
2019-03-21T08:27:45.548Z,21.80
2019-03-21T08:30:34.366Z,19.60
2019-03-21T08:33:05.411Z,17.70
2019-03-21T08:35:35.839Z,22.52
2019-03-21T08:38:06.302Z,21.77
2019-03-21T08:40:37.431Z,21.50
2019-03-21T08:43:08.231Z,21.73
2019-03-21T08:45:39.709Z,23.10
2019-03-21T08:48:10.028Z,21.90
2019-03-21T08:50:40.365Z,22.02
2019-03-21T08:53:11.324Z,21.73
2019-03-21T08:55:41.754Z,20.20
2019-03-21T08:58:12.023Z,20.70
2019-03-21T09:00:42.350Z,19.27
2019-03-21T09:03:12.759Z,20.95
2019-03-21T09:05:43.174Z,21.52
2019-03-21T09:08:13.514Z,20.02
2019-03-21T09:10:44.190Z,19.20
2019-03-21T09:13:15.004Z,19.00
2019-03-21T09:15:45.588Z,19.50
2019-03-21T09:18:15.925Z,17.70
2019-03-21T09:20:46.423Z,19.65
2019-03-21T09:23:16.939Z,18.62
2019-03-21T09:25:47.407Z,18.40
2019-03-21T09:28:17.913Z,19.60
2019-03-21T09:30:50.625Z,19.87
2019-03-21T09:33:21.317Z,19.95
2019-03-21T09:35:51.787Z,21.15
2019-03-21T09:38:22.288Z,16.95
2019-03-21T09:40:52.589Z,18.02
2019-03-21T09:43:22.974Z,17.07
2019-03-21T09:45:53.448Z,18.73
2019-03-21T09:48:23.858Z,17.00
2019-03-21T09:50:54.366Z,16.27
2019-03-21T09:53:24.829Z,18.73
2019-03-21T09:55:55.601Z,18.95
2019-03-21T09:58:25.994Z,11.63
2019-03-21T10:00:56.443Z,17.23
2019-03-21T10:03:26.761Z,16.93
2019-03-21T10:05:57.096Z,15.05
2019-03-21T10:08:28.172Z,15.90
2019-03-21T10:10:58.814Z,15.68
2019-03-21T10:13:29.210Z,18.07
2019-03-21T10:15:59.755Z,17.10
2019-03-21T10:18:30.200Z,17.55
2019-03-21T10:21:01.030Z,16.73
2019-03-21T10:23:31.757Z,16.12
2019-03-21T10:26:02.463Z,16.07
2019-03-21T10:28:33.855Z,17.07
2019-03-21T10:31:04.342Z,18.80
2019-03-21T10:33:34.784Z,17.82
2019-03-21T10:36:05.263Z,17.05
2019-03-21T10:38:35.671Z,16.52
2019-03-21T10:41:07.091Z,16.57
2019-03-21T10:43:37.479Z,17.27
2019-03-21T10:46:07.891Z,18.20
2019-03-21T10:48:38.168Z,18.42
2019-03-21T10:51:08.498Z,18.92
2019-03-21T10:53:39.213Z,18.82
2019-03-21T10:56:10.011Z,18.87
2019-03-21T10:58:40.570Z,19.20
2019-03-21T11:01:10.936Z,19.65
2019-03-21T11:03:41.741Z,20.15
2019-03-21T11:06:12.162Z,21.48
2019-03-21T11:08:42.942Z,19.70
2019-03-21T11:11:14.589Z,21.90
2019-03-21T11:13:45.096Z,17.98
2019-03-21T11:16:15.544Z,19.85
2019-03-21T11:18:46.604Z,18.60
2019-03-21T11:21:17.011Z,19.32
2019-03-21T11:23:47.515Z,14.87
2019-03-21T11:26:17.963Z,18.90
2019-03-21T11:28:48.276Z,20.82
2019-03-21T11:31:19.013Z,19.65
2019-03-21T11:33:49.507Z,19.60
2019-03-21T11:36:20.338Z,21.00
2019-03-21T11:38:50.779Z,19.98
2019-03-21T11:41:21.063Z,19.20
2019-03-21T11:43:51.480Z,21.30
2019-03-21T11:46:21.897Z,19.67
2019-03-21T11:48:52.443Z,19.87
2019-03-21T11:51:22.809Z,18.75
2019-03-21T11:53:53.199Z,20.80
2019-03-21T11:56:23.976Z,21.52
2019-03-21T11:58:54.468Z,21.50
2019-03-21T12:01:24.751Z,19.15
2019-03-21T12:03:55.523Z,20.30
2019-03-21T12:06:26.011Z,19.32
2019-03-21T12:08:56.558Z,20.05
2019-03-21T12:11:27.043Z,18.62
2019-03-21T12:13:57.336Z,17.42
2019-03-21T12:16:27.671Z,18.40
2019-03-21T12:18:58.007Z,17.77
2019-03-21T12:21:28.288Z,17.65
2019-03-21T12:23:58.704Z,19.07
2019-03-21T12:26:29.323Z,18.25
2019-03-21T12:29:00.069Z,16.12
2019-03-21T12:31:30.499Z,16.97
2019-03-21T12:34:00.767Z,18.27
2019-03-21T12:36:31.095Z,17.42
2019-03-21T12:39:02.168Z,18.05
2019-03-21T12:41:32.667Z,16.62
2019-03-21T12:44:03.049Z,16.55
2019-03-21T12:46:33.792Z,15.80
2019-03-21T12:49:04.215Z,16.87
2019-03-21T12:51:34.568Z,16.93
2019-03-21T12:54:05.507Z,18.70
2019-03-21T12:56:35.972Z,18.20
2019-03-21T12:59:06.324Z,16.37
2019-03-21T13:01:36.764Z,15.90
2019-03-21T13:04:07.377Z,15.65
2019-03-21T13:06:37.882Z,15.90
2019-03-21T13:09:08.766Z,15.45
2019-03-21T13:11:39.260Z,15.10
2019-03-21T13:14:09.652Z,16.82
2019-03-21T13:16:40.127Z,16.75
2019-03-21T13:19:10.521Z,16.12
2019-03-21T13:21:40.875Z,13.68
2019-03-21T13:24:11.273Z,14.78
2019-03-21T13:26:41.687Z,15.93
2019-03-21T13:29:12.146Z,16.17
2019-03-21T13:31:42.523Z,15.85
2019-03-21T13:34:12.954Z,14.90
2019-03-21T13:36:43.470Z,14.07
2019-03-21T13:39:13.913Z,15.50
2019-03-21T13:41:44.244Z,15.13
2019-03-21T13:44:15.247Z,15.68
2019-03-21T13:46:45.596Z,13.93
2019-03-21T13:49:16.223Z,14.73
2019-03-21T13:51:46.486Z,14.90
2019-03-21T13:54:17.005Z,14.38
2019-03-21T13:56:47.811Z,14.15
2019-03-21T13:59:18.517Z,16.27
2019-03-21T14:01:49.023Z,14.78
2019-03-21T14:04:19.506Z,15.98
2019-03-21T14:06:50.083Z,15.32
2019-03-21T14:09:20.494Z,14.60
2019-03-21T14:11:50.843Z,15.18
2019-03-21T14:14:21.134Z,14.13
2019-03-21T14:16:51.611Z,15.30
2019-03-21T14:19:22.028Z,15.00
2019-03-21T14:21:52.411Z,15.63
2019-03-21T14:24:22.799Z,14.68
2019-03-21T14:26:53.098Z,14.75
2019-03-21T14:29:23.520Z,15.18
2019-03-21T14:31:54.014Z,15.13
2019-03-21T14:34:25.394Z,14.95
2019-03-21T14:36:55.714Z,16.35
2019-03-21T14:39:26.138Z,14.80
2019-03-21T14:41:56.567Z,14.95
2019-03-21T14:44:27.340Z,15.18
2019-03-21T14:46:57.723Z,15.55
2019-03-21T14:49:28.265Z,16.02
2019-03-21T14:51:59.043Z,14.15
2019-03-21T14:54:29.431Z,14.40
2019-03-21T14:56:59.834Z,16.15
2019-03-21T14:59:30.235Z,15.10
2019-03-21T15:02:00.695Z,14.98
2019-03-21T15:04:31.494Z,15.55
2019-03-21T15:07:02.110Z,14.50
2019-03-21T15:09:32.491Z,15.78
2019-03-21T15:12:03.015Z,16.45
2019-03-21T15:14:33.402Z,17.32
2019-03-21T15:17:03.877Z,17.57
2019-03-21T15:19:34.359Z,17.07
2019-03-21T15:22:04.872Z,15.88
2019-03-21T15:24:35.339Z,15.32
2019-03-21T15:27:05.726Z,15.03
2019-03-21T15:29:36.153Z,16.15
2019-03-21T15:32:06.658Z,16.70
2019-03-21T15:34:37.036Z,15.93
2019-03-21T15:37:07.782Z,17.60
2019-03-21T15:39:38.578Z,16.30
2019-03-21T15:42:09.078Z,15.63
2019-03-21T15:44:40.019Z,16.20
2019-03-21T15:47:10.510Z,15.85
2019-03-21T15:49:41.146Z,15.90
2019-03-21T15:52:11.598Z,16.05
2019-03-21T15:54:42.423Z,16.85
2019-03-21T15:57:12.968Z,17.60
2019-03-21T15:59:44.798Z,16.10
2019-03-21T16:02:15.175Z,16.82
2019-03-21T16:04:45.625Z,16.00
2019-03-21T16:07:15.918Z,17.05
2019-03-21T16:09:46.514Z,16.85
2019-03-21T16:12:16.879Z,16.12
2019-03-21T16:14:49.205Z,15.53
2019-03-21T16:17:19.284Z,16.80
2019-03-21T16:19:49.660Z,17.70
2019-03-21T16:22:20.103Z,16.73
2019-03-21T16:24:50.583Z,17.82
2019-03-21T16:27:21.340Z,16.93
2019-03-21T16:29:51.747Z,17.82
2019-03-21T16:32:22.484Z,18.37
2019-03-21T16:34:53.271Z,19.00
2019-03-21T16:37:23.751Z,16.32
2019-03-21T16:39:54.492Z,17.05
2019-03-21T16:42:24.830Z,17.77
2019-03-21T16:44:55.175Z,18.05
2019-03-21T16:47:25.643Z,19.57
2019-03-21T16:49:56.071Z,17.65
2019-03-21T16:52:26.955Z,18.32
2019-03-21T16:54:57.381Z,16.73
2019-03-21T16:57:27.779Z,17.27
2019-03-21T16:59:59.276Z,16.62
2019-03-21T17:02:29.728Z,15.88
2019-03-21T17:05:00.572Z,17.40
2019-03-21T17:07:31.004Z,17.17
2019-03-21T17:10:01.440Z,16.62
2019-03-21T17:12:32.160Z,17.98
2019-03-21T17:15:03.299Z,17.75
2019-03-21T17:17:33.907Z,17.27
2019-03-21T17:20:05.000Z,18.00
2019-03-21T17:22:35.480Z,22.13
2019-03-21T17:25:06.267Z,22.50
2019-03-21T17:27:37.012Z,21.52
2019-03-21T17:30:08.192Z,20.97
2019-03-21T17:32:38.668Z,19.77
2019-03-21T17:35:09.187Z,19.82
2019-03-21T17:37:40.066Z,19.90
2019-03-21T17:40:12.202Z,21.02
2019-03-21T17:42:43.085Z,19.82
2019-03-21T17:45:15.209Z,20.05
2019-03-21T17:47:45.654Z,19.70
2019-03-21T17:50:16.205Z,19.77
2019-03-21T17:52:46.675Z,19.77
2019-03-21T17:55:17.479Z,19.42
2019-03-21T17:57:47.955Z,19.37
2019-03-21T18:00:20.854Z,19.45
2019-03-21T18:02:51.381Z,18.07
2019-03-21T18:05:22.204Z,21.33
2019-03-21T18:07:52.684Z,19.82
2019-03-21T18:10:28.163Z,21.17
2019-03-21T18:13:00.297Z,20.60
2019-03-21T18:15:31.321Z,19.70
2019-03-21T18:18:02.191Z,20.55
2019-03-21T18:20:33.591Z,19.60
2019-03-21T18:23:04.501Z,21.42
2019-03-21T18:25:35.068Z,21.35
2019-03-21T18:28:08.423Z,19.77
2019-03-21T18:30:37.580Z,20.10
2019-03-21T18:33:08.324Z,21.57
2019-03-21T18:35:38.875Z,20.82
2019-03-21T18:38:09.304Z,21.30
2019-03-21T18:40:39.606Z,21.20
2019-03-21T18:43:10.037Z,19.90
2019-03-21T18:45:41.622Z,22.55
2019-03-21T18:48:11.962Z,22.77
2019-03-21T18:50:42.701Z,23.00
2019-03-21T18:53:13.075Z,24.43
2019-03-21T18:55:43.638Z,21.70
2019-03-21T18:58:14.080Z,24.57
2019-03-21T19:00:44.776Z,25.05
2019-03-21T19:03:15.456Z,25.40
2019-03-21T19:05:46.193Z,25.75
2019-03-21T19:08:16.832Z,27.35
2019-03-21T19:10:47.660Z,27.22
2019-03-21T19:13:18.076Z,28.53
2019-03-21T19:15:48.519Z,27.87
2019-03-21T19:18:19.255Z,29.75
2019-03-21T19:20:49.715Z,28.25
2019-03-21T19:23:20.213Z,30.37
2019-03-21T19:25:50.943Z,30.67
2019-03-21T19:28:21.579Z,32.73
2019-03-21T19:30:53.094Z,34.35
2019-03-21T19:33:23.900Z,33.75
2019-03-21T19:35:54.325Z,34.92
2019-03-21T19:38:24.601Z,38.20
2019-03-21T19:40:55.151Z,37.90
2019-03-21T19:43:25.702Z,45.78
2019-03-21T19:45:56.398Z,46.05
2019-03-21T19:48:26.762Z,36.08
2019-03-21T19:50:57.097Z,33.45
2019-03-21T19:53:28.889Z,31.73
2019-03-21T19:56:08.476Z,33.50
2019-03-21T19:58:32.326Z,34.23
2019-03-21T20:01:04.238Z,33.80
2019-03-21T20:03:35.129Z,34.80
2019-03-21T20:06:05.672Z,32.95
2019-03-21T20:08:36.112Z,34.23
2019-03-21T20:11:06.397Z,40.17
2019-03-21T20:13:36.910Z,39.13
2019-03-21T20:16:08.399Z,34.38
2019-03-21T20:18:39.475Z,36.40
2019-03-21T20:21:09.828Z,34.45
2019-03-21T20:23:40.542Z,34.77
2019-03-21T20:26:10.960Z,36.73
2019-03-21T20:28:41.413Z,42.35
2019-03-21T20:31:12.506Z,35.73
2019-03-21T20:33:43.171Z,36.68
2019-03-21T20:36:13.635Z,35.27
2019-03-21T20:38:44.087Z,37.05
2019-03-21T20:41:14.591Z,35.92
2019-03-21T20:43:44.994Z,36.50
2019-03-21T20:46:15.435Z,37.60
2019-03-21T20:48:43.970Z,39.67
2019-03-21T20:51:14.425Z,39.08
2019-03-21T20:53:44.822Z,38.83
2019-03-21T20:56:16.463Z,40.10
2019-03-21T20:58:47.249Z,39.73
2019-03-21T21:01:18.056Z,38.77
2019-03-21T21:03:48.898Z,38.80
2019-03-21T21:06:19.707Z,38.30
2019-03-21T21:08:50.197Z,39.07
2019-03-21T21:11:20.695Z,40.93
2019-03-21T21:13:51.161Z,38.37
2019-03-21T21:16:21.547Z,39.37
2019-03-21T21:18:52.040Z,39.47
2019-03-21T21:21:22.708Z,40.28
2019-03-21T21:23:53.209Z,40.10
2019-03-21T21:26:23.578Z,38.67
2019-03-21T21:28:54.458Z,37.90
2019-03-21T21:31:24.984Z,36.97
2019-03-21T21:33:55.677Z,37.35
2019-03-21T21:36:26.368Z,37.17
2019-03-21T21:38:57.015Z,39.60
2019-03-21T21:41:27.437Z,41.97
2019-03-21T21:43:57.966Z,40.77
2019-03-21T21:46:28.384Z,37.33
2019-03-21T21:48:58.844Z,40.83
2019-03-21T21:51:29.196Z,41.70
2019-03-21T21:53:59.787Z,39.07
2019-03-21T21:56:31.240Z,41.40
2019-03-21T21:59:01.955Z,40.33
2019-03-21T22:01:32.694Z,40.20
2019-03-21T22:04:04.886Z,37.83
2019-03-21T22:06:36.169Z,37.43
2019-03-21T22:09:08.620Z,40.93
2019-03-21T22:11:39.338Z,37.47
2019-03-21T22:14:10.047Z,39.27
2019-03-21T22:16:40.413Z,38.63
2019-03-21T22:19:11.203Z,37.63
2019-03-21T22:21:41.921Z,38.93
2019-03-21T22:24:13.289Z,39.10
2019-03-21T22:26:43.713Z,38.70
2019-03-21T22:29:14.282Z,40.07
2019-03-21T22:31:45.124Z,43.13
2019-03-21T22:34:15.492Z,44.77
2019-03-21T22:36:49.676Z,43.40
2019-03-21T22:39:17.879Z,43.13
2019-03-21T22:41:48.214Z,45.70
2019-03-21T22:44:18.689Z,42.20
2019-03-21T22:46:49.327Z,41.50
2019-03-21T22:49:20.155Z,40.07
2019-03-21T22:51:50.959Z,38.33
2019-03-21T22:54:21.339Z,37.57
2019-03-21T22:56:51.654Z,38.40
2019-03-21T22:59:22.016Z,38.50
2019-03-21T23:01:52.395Z,37.03
2019-03-21T23:04:22.829Z,37.77
2019-03-21T23:06:53.379Z,36.37
2019-03-21T23:09:24.721Z,37.00
2019-03-21T23:11:55.158Z,36.73
2019-03-21T23:14:27.264Z,35.90
2019-03-21T23:16:57.717Z,33.83
2019-03-21T23:19:28.330Z,34.37
2019-03-21T23:21:58.857Z,35.20
2019-03-21T23:24:29.628Z,35.30
2019-03-21T23:27:00.187Z,33.63
2019-03-21T23:29:30.654Z,35.87
2019-03-21T23:32:01.075Z,34.10
2019-03-21T23:34:31.430Z,34.30
2019-03-21T23:37:01.851Z,34.40
2019-03-21T23:39:32.259Z,33.10
2019-03-21T23:42:02.703Z,32.23
2019-03-21T23:44:33.061Z,32.57
2019-03-21T23:47:03.758Z,33.57
2019-03-21T23:49:34.184Z,35.13
2019-03-21T23:52:04.601Z,34.83
2019-03-21T23:54:35.004Z,33.47
2019-03-21T23:57:05.771Z,34.43
2019-03-21T23:59:36.243Z,34.43
